createdAt,value
2022-10-23T00:01:15.697Z,1.93
2022-10-23T00:03:45.998Z,1.43
2022-10-23T00:06:15.972Z,1.53
2022-10-23T00:08:44.097Z,1.80
2022-10-23T00:11:14.083Z,1.57
2022-10-23T00:13:42.949Z,2.17
2022-10-23T00:16:11.494Z,1.50
2022-10-23T00:18:40.311Z,1.37
2022-10-23T00:21:12.337Z,1.57
2022-10-23T00:23:41.020Z,1.00
2022-10-23T00:26:11.265Z,1.53
2022-10-23T00:28:40.046Z,1.73
2022-10-23T00:31:08.344Z,1.37
2022-10-23T00:33:36.764Z,0.90
2022-10-23T00:36:07.109Z,1.57
2022-10-23T00:38:37.490Z,1.53
2022-10-23T00:41:07.127Z,1.67
2022-10-23T00:43:37.350Z,2.03
2022-10-23T00:46:06.052Z,1.03
2022-10-23T00:48:34.430Z,1.73
2022-10-23T00:51:02.790Z,1.37
2022-10-23T00:53:31.233Z,1.63
2022-10-23T00:56:01.438Z,1.20
2022-10-23T00:58:30.124Z,1.50
2022-10-23T01:00:58.801Z,1.50
2022-10-23T01:03:29.253Z,1.57
2022-10-23T01:06:04.989Z,1.80
2022-10-23T01:08:39.816Z,1.73
2022-10-23T01:11:15.961Z,1.43
2022-10-23T01:13:52.982Z,1.90
2022-10-23T01:16:28.039Z,1.63
2022-10-23T01:19:05.222Z,1.40
2022-10-23T01:21:49.782Z,1.73
2022-10-23T01:24:29.012Z,1.07
2022-10-23T01:27:13.811Z,1.30
2022-10-23T01:29:46.668Z,2.03
2022-10-23T01:32:19.438Z,2.20
2022-10-23T01:34:53.158Z,2.00
2022-10-23T01:37:27.518Z,1.38
2022-10-23T01:40:01.013Z,2.23
2022-10-23T01:42:35.033Z,0.50
2022-10-23T01:45:08.893Z,1.13
2022-10-23T01:47:37.774Z,1.75
2022-10-23T01:50:09.440Z,1.03
2022-10-23T01:52:38.888Z,1.00
2022-10-23T01:55:11.609Z,1.13
2022-10-23T01:57:43.458Z,1.23
2022-10-23T02:00:15.361Z,1.23
2022-10-23T02:02:46.509Z,1.50
2022-10-23T02:05:19.322Z,2.53
2022-10-23T02:07:47.935Z,1.13
2022-10-23T02:10:17.203Z,1.17
2022-10-23T02:12:53.398Z,1.53
2022-10-23T02:15:30.389Z,1.50
2022-10-23T02:18:09.775Z,1.57
2022-10-23T02:20:41.549Z,2.03
2022-10-23T02:23:19.002Z,1.60
2022-10-23T02:25:55.045Z,0.80
2022-10-23T02:28:29.113Z,2.33
2022-10-23T02:31:00.598Z,1.33
2022-10-23T02:33:30.492Z,1.17
2022-10-23T02:35:58.882Z,2.40
2022-10-23T02:38:36.203Z,2.27
2022-10-23T02:41:35.366Z,1.97
2022-10-23T02:44:27.462Z,1.53
2022-10-23T02:47:08.083Z,1.97
2022-10-23T02:49:43.419Z,1.40
2022-10-23T02:52:16.218Z,1.70
2022-10-23T02:54:57.058Z,1.33
2022-10-23T02:57:31.600Z,1.67
2022-10-23T03:00:07.036Z,2.07
2022-10-23T03:02:41.721Z,1.67
2022-10-23T03:05:15.247Z,1.33
2022-10-23T03:07:44.210Z,0.90
2022-10-23T03:10:12.984Z,1.73
2022-10-23T03:12:41.754Z,1.87
2022-10-23T03:15:13.509Z,1.20
2022-10-23T03:17:42.475Z,1.33
2022-10-23T03:20:11.870Z,0.90
2022-10-23T03:22:40.512Z,0.83
2022-10-23T03:25:09.661Z,1.00
2022-10-23T03:27:38.025Z,1.00
2022-10-23T03:30:08.014Z,1.33
2022-10-23T03:32:37.545Z,1.70
2022-10-23T03:35:06.525Z,2.17
2022-10-23T03:37:34.617Z,1.80
2022-10-23T03:40:02.889Z,2.17
2022-10-23T03:42:31.072Z,2.67
2022-10-23T03:44:59.134Z,2.07
2022-10-23T03:47:27.382Z,2.23
2022-10-23T03:49:56.905Z,1.57
2022-10-23T03:54:58.057Z,0.97
2022-10-23T03:57:26.757Z,4.03
2022-10-23T03:59:54.770Z,1.73
2022-10-23T04:02:23.391Z,2.17
2022-10-23T04:04:51.506Z,1.83
2022-10-23T04:07:21.229Z,1.80
2022-10-23T04:09:49.282Z,1.13
2022-10-23T04:12:18.209Z,2.20
2022-10-23T04:14:46.603Z,1.10
2022-10-23T04:17:14.702Z,1.30
2022-10-23T04:19:43.051Z,2.30
2022-10-23T04:22:11.207Z,1.70
2022-10-23T04:24:45.458Z,1.63
2022-10-23T04:27:14.017Z,2.00
2022-10-23T04:29:42.121Z,2.90
2022-10-23T04:32:10.214Z,0.73
2022-10-23T04:34:38.237Z,1.57
2022-10-23T04:37:06.292Z,2.83
2022-10-23T04:39:34.334Z,2.17
2022-10-23T04:42:03.758Z,1.50
2022-10-23T04:44:31.962Z,3.53
2022-10-23T04:46:59.925Z,2.43
2022-10-23T04:49:28.086Z,1.57
2022-10-23T04:51:56.376Z,1.57
2022-10-23T04:54:24.668Z,2.07
2022-10-23T04:56:52.774Z,2.03
2022-10-23T04:59:22.220Z,1.30
2022-10-23T05:01:50.673Z,0.87
2022-10-23T05:04:18.809Z,1.63
2022-10-23T05:06:46.859Z,2.13
2022-10-23T05:09:14.838Z,2.03
2022-10-23T05:11:42.879Z,1.13
2022-10-23T05:14:10.830Z,1.83
2022-10-23T05:16:47.854Z,1.00
2022-10-23T05:19:23.373Z,1.87
2022-10-23T05:21:56.061Z,1.27
2022-10-23T05:24:24.420Z,2.10
2022-10-23T05:26:53.155Z,2.57
2022-10-23T05:29:21.524Z,1.00
2022-10-23T05:31:54.063Z,2.17
2022-10-23T05:34:25.709Z,0.37
2022-10-23T05:36:54.723Z,1.10
2022-10-23T05:39:23.058Z,2.00
2022-10-23T05:41:51.409Z,1.37
2022-10-23T05:44:19.489Z,0.83
2022-10-23T05:46:48.024Z,1.93
2022-10-23T05:49:17.760Z,1.60
2022-10-23T05:51:45.865Z,1.40
2022-10-23T05:54:13.773Z,1.13
2022-10-23T05:56:42.774Z,1.67
2022-10-23T05:59:11.630Z,0.88
2022-10-23T06:01:39.737Z,1.35
2022-10-23T06:04:08.094Z,1.00
2022-10-23T06:06:37.890Z,1.90
2022-10-23T06:09:06.803Z,1.25
2022-10-23T06:11:34.994Z,1.83
2022-10-23T06:14:03.079Z,1.30
2022-10-23T06:16:31.131Z,1.88
2022-10-23T06:18:59.921Z,1.85
2022-10-23T06:21:28.352Z,2.15
2022-10-23T06:23:57.980Z,1.05
2022-10-23T06:26:26.132Z,1.75
2022-10-23T06:28:54.215Z,1.10
2022-10-23T06:31:26.823Z,1.52
2022-10-23T06:33:55.064Z,1.80
2022-10-23T06:36:23.356Z,0.70
2022-10-23T06:38:52.296Z,1.65
2022-10-23T06:41:23.354Z,1.45
2022-10-23T06:43:52.889Z,1.08
2022-10-23T06:46:21.465Z,1.48
2022-10-23T06:48:49.719Z,1.63
2022-10-23T06:51:18.829Z,1.63
2022-10-23T06:53:47.546Z,2.30
2022-10-23T06:56:16.058Z,1.60
2022-10-23T06:58:45.507Z,0.98
2022-10-23T07:01:16.505Z,1.67
2022-10-23T07:03:45.081Z,2.33
2022-10-23T07:06:13.172Z,1.02
2022-10-23T07:08:41.343Z,1.02
2022-10-23T07:11:10.921Z,1.13
2022-10-23T07:13:40.663Z,1.15
2022-10-23T07:16:18.038Z,0.85
2022-10-23T07:18:46.899Z,1.05
2022-10-23T07:21:15.001Z,1.17
2022-10-23T07:23:43.189Z,1.42
2022-10-23T07:26:14.526Z,0.70
2022-10-23T07:28:43.368Z,0.90
2022-10-23T07:31:11.872Z,1.10
2022-10-23T07:33:41.400Z,0.73
2022-10-23T07:36:10.857Z,0.40
2022-10-23T07:38:39.023Z,0.70
2022-10-23T07:41:10.174Z,0.52
2022-10-23T07:43:40.773Z,1.40
2022-10-23T07:46:10.090Z,0.85
2022-10-23T07:48:38.709Z,0.38
2022-10-23T07:51:12.399Z,0.93
2022-10-23T07:53:41.381Z,0.35
2022-10-23T07:56:15.444Z,0.30
2022-10-23T07:58:43.895Z,0.85
2022-10-23T08:01:19.484Z,0.93
2022-10-23T08:03:48.303Z,0.75
2022-10-23T08:06:18.028Z,0.60
2022-10-23T08:11:25.134Z,1.55
2022-10-23T08:13:53.914Z,0.52
2022-10-23T08:16:22.548Z,3.28
2022-10-23T08:18:50.934Z,0.98
2022-10-23T08:21:20.819Z,0.93
2022-10-23T08:23:49.076Z,0.38
2022-10-23T08:26:17.209Z,0.50
2022-10-23T08:28:45.324Z,0.68
2022-10-23T08:31:15.679Z,0.52
2022-10-23T08:33:44.211Z,0.30
2022-10-23T08:36:18.718Z,0.90
2022-10-23T08:38:49.261Z,0.50
2022-10-23T08:41:27.106Z,0.20
2022-10-23T08:44:02.890Z,0.95
2022-10-23T08:46:35.689Z,0.73
2022-10-23T08:49:30.022Z,0.90
2022-10-23T08:52:00.282Z,0.73
2022-10-23T08:54:40.931Z,0.52
2022-10-23T08:57:14.931Z,0.52
2022-10-23T08:59:49.054Z,1.05
2022-10-23T09:02:22.867Z,0.90
2022-10-23T09:04:53.657Z,0.73
2022-10-23T09:07:29.797Z,0.22
2022-10-23T09:10:10.278Z,0.80
2022-10-23T09:12:39.685Z,0.82
2022-10-23T09:15:25.473Z,0.17
2022-10-23T09:17:59.253Z,0.52
2022-10-23T09:20:30.895Z,0.82
2022-10-23T09:23:02.202Z,0.70
2022-10-23T09:25:35.466Z,0.63
2022-10-23T09:28:05.595Z,0.20
2022-10-23T09:30:35.965Z,0.10
2022-10-23T09:33:16.357Z,0.43
2022-10-23T09:35:55.721Z,1.02
2022-10-23T09:38:29.716Z,0.32
2022-10-23T09:41:02.162Z,0.55
2022-10-23T09:43:30.479Z,0.13
2022-10-23T09:46:00.191Z,0.28
2022-10-23T09:48:29.228Z,0.22
2022-10-23T09:50:59.745Z,0.40
2022-10-23T09:53:33.344Z,0.77
2022-10-23T09:58:35.608Z,0.57
2022-10-23T10:01:04.759Z,0.50
2022-10-23T10:03:33.068Z,1.02
2022-10-23T10:06:03.657Z,0.30
2022-10-23T10:08:39.101Z,1.20
2022-10-23T10:11:14.096Z,1.50
2022-10-23T10:14:32.635Z,0.75
2022-10-23T10:17:04.803Z,0.65
2022-10-23T10:19:48.174Z,1.15
2022-10-23T10:22:28.355Z,0.17
2022-10-23T10:25:03.212Z,0.70
2022-10-23T10:27:47.143Z,0.28
2022-10-23T10:32:52.299Z,0.50
2022-10-23T10:35:41.612Z,0.38
2022-10-23T10:38:39.589Z,0.13
2022-10-23T10:41:35.730Z,0.50
2022-10-23T10:44:21.670Z,0.63
2022-10-23T10:46:57.679Z,0.55
2022-10-23T10:49:31.178Z,0.13
2022-10-23T10:52:11.093Z,0.20
2022-10-23T10:54:50.042Z,0.32
2022-10-23T10:57:30.108Z,0.17
2022-10-23T11:00:05.607Z,0.40
2022-10-23T11:02:39.573Z,0.30
2022-10-23T11:05:19.205Z,0.22
2022-10-23T11:07:56.728Z,0.00
2022-10-23T11:10:24.762Z,0.40
2022-10-23T11:12:53.450Z,0.30
2022-10-23T11:15:27.565Z,0.30
2022-10-23T11:18:00.146Z,0.60
2022-10-23T11:20:48.949Z,0.38
2022-10-23T11:23:46.346Z,0.20
2022-10-23T11:26:27.022Z,0.70
2022-10-23T11:29:12.097Z,0.40
2022-10-23T11:31:53.201Z,0.25
2022-10-23T11:34:41.274Z,0.28
2022-10-23T11:37:09.596Z,0.20
2022-10-23T11:39:40.679Z,0.40
2022-10-23T11:42:16.550Z,0.28
2022-10-23T11:44:46.886Z,0.32
2022-10-23T11:47:44.455Z,0.55
2022-10-23T11:50:25.882Z,0.60
2022-10-23T11:53:13.071Z,0.85
2022-10-23T11:55:42.264Z,0.50
2022-10-23T11:58:44.465Z,0.90
2022-10-23T12:01:29.679Z,0.50
2022-10-23T12:04:03.985Z,0.52
2022-10-23T12:06:39.435Z,0.30
2022-10-23T12:09:20.230Z,0.17
2022-10-23T12:11:51.701Z,0.52
2022-10-23T12:14:35.785Z,0.80
2022-10-23T12:17:04.605Z,1.30
2022-10-23T12:19:49.524Z,0.57
2022-10-23T12:22:20.258Z,0.10
2022-10-23T12:25:02.027Z,0.30
2022-10-23T12:27:37.686Z,0.32
2022-10-23T12:30:18.906Z,0.43
2022-10-23T12:33:15.778Z,0.30
2022-10-23T12:36:08.357Z,0.13
2022-10-23T12:38:45.151Z,0.20
2022-10-23T12:41:16.567Z,0.50
2022-10-23T12:43:47.543Z,0.40
2022-10-23T12:46:31.460Z,0.22
2022-10-23T12:51:31.395Z,0.30
2022-10-23T12:54:00.310Z,0.40
2022-10-23T12:56:35.456Z,0.30
2022-10-23T12:59:04.415Z,0.60
2022-10-23T13:01:35.482Z,0.25
2022-10-23T13:04:09.756Z,0.63
2022-10-23T13:06:40.612Z,0.20
2022-10-23T13:09:21.391Z,0.15
2022-10-23T13:11:49.931Z,0.52
2022-10-23T13:14:32.424Z,0.28
2022-10-23T13:17:02.447Z,0.20
2022-10-23T13:19:30.683Z,0.55
2022-10-23T13:22:01.808Z,0.55
2022-10-23T13:24:31.803Z,0.52
2022-10-23T13:27:00.370Z,0.30
2022-10-23T13:29:32.446Z,0.50
2022-10-23T13:32:11.529Z,0.30
2022-10-23T13:34:40.340Z,0.55
2022-10-23T13:37:26.410Z,0.25
2022-10-23T13:40:01.500Z,0.32
2022-10-23T13:42:29.736Z,0.30
2022-10-23T13:44:57.926Z,0.80
2022-10-23T13:47:26.310Z,0.47
2022-10-23T13:49:54.404Z,0.30
2022-10-23T13:52:25.010Z,0.30
2022-10-23T13:54:54.657Z,0.38
2022-10-23T13:57:23.157Z,0.13
2022-10-23T13:59:51.411Z,0.57
2022-10-23T14:02:23.043Z,0.25
2022-10-23T14:04:52.461Z,0.43
2022-10-23T14:07:20.916Z,0.22
2022-10-23T14:09:50.602Z,0.10
2022-10-23T14:12:20.417Z,0.13
2022-10-23T14:14:52.966Z,0.10
2022-10-23T14:17:21.450Z,0.40
2022-10-23T14:19:50.318Z,0.47
2022-10-23T14:22:18.663Z,0.57
2022-10-23T14:24:46.978Z,0.35
2022-10-23T14:27:15.039Z,0.60
2022-10-23T14:29:44.678Z,0.65
2022-10-23T14:32:12.928Z,0.10
2022-10-23T14:34:43.918Z,0.52
2022-10-23T14:37:11.983Z,0.38
2022-10-23T14:39:40.122Z,0.10
2022-10-23T14:42:08.304Z,0.10
2022-10-23T14:44:36.373Z,0.55
2022-10-23T14:47:06.431Z,0.50
2022-10-23T14:49:35.791Z,0.82
2022-10-23T14:52:03.883Z,2.38
2022-10-23T14:54:34.706Z,0.90
2022-10-23T14:57:02.900Z,1.25
2022-10-23T14:59:31.312Z,1.23
2022-10-23T15:01:59.580Z,0.35
2022-10-23T15:04:29.113Z,0.13
2022-10-23T15:06:57.750Z,0.30
2022-10-23T15:09:26.198Z,0.20
2022-10-23T15:11:54.594Z,0.38
2022-10-23T15:14:22.686Z,0.40
2022-10-23T15:16:50.763Z,0.55
2022-10-23T15:19:19.247Z,0.28
2022-10-23T15:21:49.682Z,0.10
2022-10-23T15:24:18.657Z,0.40
2022-10-23T15:26:47.007Z,0.60
2022-10-23T15:29:16.072Z,0.20
2022-10-23T15:31:51.353Z,0.20
2022-10-23T15:34:22.314Z,0.55
2022-10-23T15:36:53.150Z,0.35
2022-10-23T15:39:23.234Z,0.52
2022-10-23T15:41:53.287Z,0.13
2022-10-23T15:44:23.154Z,0.70
2022-10-23T15:46:52.362Z,0.40
2022-10-23T15:49:22.063Z,0.13
2022-10-23T15:51:52.746Z,0.50
2022-10-23T15:54:21.513Z,0.30
2022-10-23T15:56:50.995Z,0.30
2022-10-23T15:59:21.119Z,0.35
2022-10-23T16:01:49.638Z,0.30
2022-10-23T16:04:18.104Z,0.13
2022-10-23T16:06:46.706Z,0.68
2022-10-23T16:09:16.991Z,0.20
2022-10-23T16:11:45.968Z,0.20
2022-10-23T16:14:16.271Z,0.40
2022-10-23T16:16:44.548Z,0.38
2022-10-23T16:19:13.194Z,0.30
2022-10-23T16:21:42.731Z,0.43
2022-10-23T16:24:11.832Z,0.50
2022-10-23T16:26:41.738Z,0.30
2022-10-23T16:29:11.010Z,0.50
2022-10-23T16:31:39.150Z,0.32
2022-10-23T16:34:08.048Z,0.75
2022-10-23T16:36:39.202Z,0.10
2022-10-23T16:39:08.911Z,0.43
2022-10-23T16:41:37.191Z,1.23
2022-10-23T16:44:07.782Z,0.30
2022-10-23T16:46:36.544Z,0.50
2022-10-23T16:49:05.170Z,0.38
2022-10-23T16:51:34.681Z,0.30
2022-10-23T16:54:03.259Z,0.60
2022-10-23T16:56:31.477Z,0.60
2022-10-23T16:59:00.843Z,0.50
2022-10-23T17:01:32.431Z,0.73
2022-10-23T17:04:00.883Z,0.40
2022-10-23T17:06:32.183Z,0.30
2022-10-23T17:09:02.146Z,0.20
2022-10-23T17:11:31.641Z,0.50
2022-10-23T17:14:02.207Z,0.35
2022-10-23T17:16:35.153Z,0.77
2022-10-23T17:19:08.379Z,0.50
2022-10-23T17:21:42.037Z,0.32
2022-10-23T17:24:10.690Z,0.90
2022-10-23T17:26:38.707Z,1.70
2022-10-23T17:29:10.347Z,0.77
2022-10-23T17:31:41.824Z,0.75
2022-10-23T17:34:13.070Z,1.25
2022-10-23T17:36:43.502Z,0.98
2022-10-23T17:39:14.665Z,1.02
2022-10-23T17:41:43.218Z,1.15
2022-10-23T17:44:12.414Z,1.70
2022-10-23T17:46:42.149Z,0.80
2022-10-23T17:49:11.965Z,1.55
2022-10-23T17:51:40.390Z,0.85
2022-10-23T17:54:10.516Z,0.35
2022-10-23T17:56:41.161Z,0.68
2022-10-23T17:59:13.100Z,0.40
2022-10-23T18:01:44.077Z,0.40
2022-10-23T18:04:12.242Z,0.38
2022-10-23T18:06:44.151Z,0.20
2022-10-23T18:09:13.792Z,0.20
2022-10-23T18:11:47.085Z,0.30
2022-10-23T18:14:17.343Z,0.70
2022-10-23T18:16:47.247Z,0.10
2022-10-23T18:19:16.024Z,0.55
2022-10-23T18:21:44.353Z,1.30
2022-10-23T18:24:13.111Z,0.25
2022-10-23T18:26:43.168Z,0.20
2022-10-23T18:29:17.583Z,1.10
2022-10-23T18:31:48.864Z,1.00
2022-10-23T18:34:19.618Z,0.45
2022-10-23T18:36:48.578Z,0.50
2022-10-23T18:39:22.311Z,0.40
2022-10-23T18:44:22.161Z,0.38
2022-10-23T18:46:52.617Z,0.35
2022-10-23T18:49:21.578Z,0.80
2022-10-23T18:51:51.318Z,0.28
2022-10-23T18:54:21.424Z,1.00
2022-10-23T18:56:50.437Z,0.52
2022-10-23T18:59:21.629Z,0.50
2022-10-23T19:01:52.429Z,0.30
2022-10-23T19:04:20.710Z,0.32
2022-10-23T19:06:50.718Z,0.75
2022-10-23T19:09:22.412Z,0.47
2022-10-23T19:11:50.666Z,0.85
2022-10-23T19:14:18.754Z,1.33
2022-10-23T19:16:58.537Z,0.60
2022-10-23T19:19:29.906Z,0.98
2022-10-23T19:21:58.396Z,0.77
2022-10-23T19:24:31.749Z,0.73
2022-10-23T19:27:03.079Z,0.20
2022-10-23T19:29:32.029Z,0.52
2022-10-23T19:32:02.010Z,0.40
2022-10-23T19:34:30.483Z,0.68
2022-10-23T19:36:58.658Z,0.70
2022-10-23T19:39:27.076Z,0.50
2022-10-23T19:41:55.866Z,0.80
2022-10-23T19:44:24.102Z,0.47
2022-10-23T19:46:52.582Z,0.57
2022-10-23T19:49:24.032Z,0.95
2022-10-23T19:51:52.266Z,0.82
2022-10-23T19:54:21.139Z,0.70
2022-10-23T19:56:49.422Z,0.47
2022-10-23T19:59:18.236Z,1.13
2022-10-23T20:01:48.861Z,0.70
2022-10-23T20:04:17.576Z,0.57
2022-10-23T20:06:48.535Z,0.40
2022-10-23T20:09:17.045Z,0.47
2022-10-23T20:11:45.538Z,0.73
2022-10-23T20:14:14.801Z,0.13
2022-10-23T20:16:45.272Z,0.33
2022-10-23T20:21:50.922Z,0.57
2022-10-23T20:24:21.735Z,0.53
2022-10-23T20:26:52.296Z,0.33
2022-10-23T20:29:20.810Z,0.30
2022-10-23T20:31:49.405Z,0.53
2022-10-23T20:34:17.623Z,0.33
2022-10-23T20:36:48.289Z,0.50
2022-10-23T20:39:20.898Z,0.67
2022-10-23T20:41:49.322Z,0.30
2022-10-23T20:44:19.209Z,0.73
2022-10-23T20:46:47.474Z,0.53
2022-10-23T20:49:16.658Z,0.60
2022-10-23T20:51:44.941Z,0.47
2022-10-23T20:54:13.061Z,0.70
2022-10-23T20:56:42.746Z,0.33
2022-10-23T20:59:13.446Z,1.23
2022-10-23T21:01:42.742Z,0.77
2022-10-23T21:04:13.241Z,0.27
2022-10-23T21:06:57.763Z,0.37
2022-10-23T21:09:31.203Z,0.50
2022-10-23T21:12:01.239Z,0.67
2022-10-23T21:14:30.599Z,0.20
2022-10-23T21:16:58.869Z,0.60
2022-10-23T21:19:27.377Z,0.40
2022-10-23T21:21:55.680Z,0.30
2022-10-23T21:24:24.274Z,0.30
2022-10-23T21:26:52.438Z,0.37
2022-10-23T21:29:22.247Z,0.60
2022-10-23T21:31:55.252Z,0.20
2022-10-23T21:34:23.532Z,0.70
2022-10-23T21:39:39.733Z,0.20
2022-10-23T21:42:07.963Z,0.53
2022-10-23T21:44:37.641Z,0.40
2022-10-23T21:47:06.312Z,0.17
2022-10-23T21:49:34.400Z,0.40
2022-10-23T21:52:02.576Z,0.30
2022-10-23T21:54:30.730Z,0.40
2022-10-23T21:56:58.800Z,0.20
2022-10-23T21:59:30.343Z,0.73
2022-10-23T22:02:01.877Z,0.90
2022-10-23T22:04:30.056Z,0.40
2022-10-23T22:06:58.485Z,0.43
2022-10-23T22:09:26.586Z,0.30
2022-10-23T22:11:55.628Z,0.43
2022-10-23T22:14:24.469Z,0.37
2022-10-23T22:16:53.434Z,0.67
2022-10-23T22:19:24.030Z,0.17
2022-10-23T22:21:52.289Z,0.90
2022-10-23T22:24:21.083Z,0.47
2022-10-23T22:26:51.306Z,0.40
2022-10-23T22:29:22.168Z,0.80
2022-10-23T22:31:50.677Z,0.40
2022-10-23T22:34:34.905Z,0.50
2022-10-23T22:37:13.319Z,0.67
2022-10-23T22:39:41.809Z,0.40
2022-10-23T22:42:10.409Z,0.10
2022-10-23T22:44:38.902Z,0.83
2022-10-23T22:47:07.251Z,0.87
2022-10-23T22:49:35.638Z,0.10
2022-10-23T22:52:03.990Z,0.20
2022-10-23T22:54:34.118Z,0.30
2022-10-23T22:57:02.478Z,0.60
2022-10-23T22:59:30.922Z,0.80
2022-10-23T23:01:59.396Z,1.03
2022-10-23T23:04:43.298Z,0.37
2022-10-23T23:07:14.154Z,0.03
2022-10-23T23:09:45.370Z,0.37
2022-10-23T23:12:15.422Z,0.60
2022-10-23T23:14:44.366Z,0.10
2022-10-23T23:17:13.093Z,0.63
2022-10-23T23:19:41.494Z,1.20
2022-10-23T23:22:09.705Z,0.43
2022-10-23T23:24:38.416Z,0.40
2022-10-23T23:27:08.068Z,0.27
2022-10-23T23:29:36.439Z,0.43
2022-10-23T23:32:06.396Z,0.80
2022-10-23T23:34:34.587Z,0.83
2022-10-23T23:37:02.786Z,0.20
2022-10-23T23:39:30.843Z,0.60
2022-10-23T23:41:58.901Z,0.33
2022-10-23T23:44:28.505Z,0.37
2022-10-23T23:46:56.594Z,0.20
2022-10-23T23:49:24.750Z,0.40
2022-10-23T23:51:52.860Z,0.60
2022-10-23T23:54:20.938Z,0.30
2022-10-23T23:56:49.101Z,0.60
2022-10-23T23:59:17.138Z,0.27
